createdAt,value
2023-02-07T00:01:12.936Z,3.83
2023-02-07T00:03:41.358Z,4.07
2023-02-07T00:06:10.561Z,3.87
2023-02-07T00:08:39.393Z,4.57
2023-02-07T00:11:08.437Z,3.90
2023-02-07T00:13:37.890Z,4.13
2023-02-07T00:16:08.319Z,3.33
2023-02-07T00:18:36.614Z,3.63
2023-02-07T00:21:06.694Z,3.30
2023-02-07T00:23:35.441Z,3.13
2023-02-07T00:26:04.682Z,3.20
2023-02-07T00:28:32.566Z,3.43
2023-02-07T00:31:06.380Z,3.30
2023-02-07T00:33:34.783Z,3.13
2023-02-07T00:36:04.877Z,3.47
2023-02-07T00:38:32.840Z,3.57
2023-02-07T00:41:01.845Z,3.37
2023-02-07T00:43:31.027Z,3.30
2023-02-07T00:45:59.536Z,3.40
2023-02-07T00:48:29.280Z,3.30
2023-02-07T00:50:57.442Z,3.20
2023-02-07T00:53:25.414Z,3.37
2023-02-07T00:55:53.410Z,2.90
2023-02-07T00:58:21.758Z,3.00
2023-02-07T01:00:49.842Z,3.27
2023-02-07T01:03:17.804Z,2.83
2023-02-07T01:05:47.073Z,3.00
2023-02-07T01:08:14.978Z,2.90
2023-02-07T01:10:44.500Z,2.70
2023-02-07T01:13:14.134Z,3.23
2023-02-07T01:15:43.936Z,3.00
2023-02-07T01:18:12.778Z,2.90
2023-02-07T01:20:40.466Z,3.07
2023-02-07T01:23:13.297Z,2.63
2023-02-07T01:25:41.531Z,2.50
2023-02-07T01:28:09.380Z,2.70
2023-02-07T01:30:37.115Z,3.00
2023-02-07T01:33:04.907Z,3.23
2023-02-07T01:35:32.590Z,2.60
2023-02-07T01:38:02.600Z,3.37
2023-02-07T01:40:32.157Z,2.50
2023-02-07T01:42:59.779Z,2.77
2023-02-07T01:45:30.918Z,2.83
2023-02-07T01:48:04.419Z,3.03
2023-02-07T01:50:32.910Z,2.47
2023-02-07T01:53:03.410Z,2.83
2023-02-07T01:55:38.141Z,3.20
2023-02-07T01:58:08.203Z,2.67
2023-02-07T02:00:36.553Z,2.93
2023-02-07T02:03:05.853Z,2.73
2023-02-07T02:05:36.382Z,2.07
2023-02-07T02:08:04.462Z,2.63
2023-02-07T02:10:54.724Z,2.60
2023-02-07T02:13:29.712Z,2.70
2023-02-07T02:16:05.967Z,2.20
2023-02-07T02:19:15.341Z,2.40
2023-02-07T02:22:14.573Z,2.30
2023-02-07T02:25:18.078Z,2.57
2023-02-07T02:28:18.061Z,2.30
2023-02-07T02:31:11.586Z,2.47
2023-02-07T02:33:47.368Z,2.40
2023-02-07T02:36:25.252Z,2.07
2023-02-07T02:38:59.881Z,3.23
2023-02-07T02:41:32.849Z,3.30
2023-02-07T02:44:05.455Z,2.40
2023-02-07T02:46:36.829Z,2.73
2023-02-07T02:49:08.788Z,2.23
2023-02-07T02:51:37.717Z,2.43
2023-02-07T02:54:05.582Z,2.23
2023-02-07T02:56:54.486Z,3.30
2023-02-07T02:59:52.360Z,2.50
2023-02-07T03:02:33.293Z,2.23
2023-02-07T03:05:11.684Z,2.57
2023-02-07T03:07:56.111Z,2.70
2023-02-07T03:10:32.752Z,2.20
2023-02-07T03:13:12.553Z,2.40
2023-02-07T03:15:50.288Z,1.97
2023-02-07T03:18:24.231Z,2.10
2023-02-07T03:20:58.261Z,2.30
2023-02-07T03:23:30.090Z,2.70
2023-02-07T03:26:00.318Z,2.30
2023-02-07T03:28:30.069Z,2.43
2023-02-07T03:31:01.779Z,2.17
2023-02-07T03:33:30.011Z,2.30
2023-02-07T03:36:06.147Z,2.50
2023-02-07T03:38:33.997Z,2.97
2023-02-07T03:41:11.077Z,2.40
2023-02-07T03:43:41.016Z,1.97
2023-02-07T03:46:10.110Z,2.60
2023-02-07T03:48:37.930Z,2.30
2023-02-07T03:51:07.430Z,2.20
2023-02-07T03:53:35.289Z,2.40
2023-02-07T03:56:02.958Z,2.20
2023-02-07T03:58:30.657Z,2.40
2023-02-07T04:00:58.388Z,2.30
2023-02-07T04:03:26.392Z,2.20
2023-02-07T04:05:54.138Z,2.60
2023-02-07T04:08:23.153Z,2.50
2023-02-07T04:10:58.457Z,2.37
2023-02-07T04:13:26.260Z,2.17
2023-02-07T04:15:53.977Z,2.27
2023-02-07T04:18:21.861Z,2.07
2023-02-07T04:20:49.613Z,2.17
2023-02-07T04:23:17.509Z,2.13
2023-02-07T04:25:46.524Z,2.23
2023-02-07T04:28:14.213Z,2.50
2023-02-07T04:30:41.889Z,1.90
2023-02-07T04:33:09.598Z,2.37
2023-02-07T04:35:37.472Z,2.07
2023-02-07T04:38:05.362Z,2.70
2023-02-07T04:40:33.018Z,2.30
2023-02-07T04:43:02.002Z,2.07
2023-02-07T04:45:29.679Z,2.30
2023-02-07T04:47:57.342Z,2.20
2023-02-07T04:50:25.039Z,1.97
2023-02-07T04:52:52.804Z,1.87
2023-02-07T04:55:20.656Z,2.17
2023-02-07T04:57:48.313Z,1.83
2023-02-07T05:00:18.771Z,2.60
2023-02-07T05:02:46.442Z,1.87
2023-02-07T05:05:14.128Z,2.80
2023-02-07T05:07:41.768Z,2.33
2023-02-07T05:10:09.598Z,2.37
2023-02-07T05:12:37.269Z,2.10
2023-02-07T05:15:05.521Z,1.90
2023-02-07T05:17:35.081Z,2.03
2023-02-07T05:20:02.945Z,2.10
2023-02-07T05:22:30.578Z,1.93
2023-02-07T05:24:58.245Z,2.03
2023-02-07T05:27:25.974Z,2.17
2023-02-07T05:29:53.705Z,2.40
2023-02-07T05:32:39.025Z,2.57
2023-02-07T05:35:08.643Z,2.03
2023-02-07T05:37:36.391Z,2.10
2023-02-07T05:40:04.356Z,2.13
2023-02-07T05:42:32.104Z,2.00
2023-02-07T05:44:59.788Z,2.60
2023-02-07T05:47:27.830Z,1.80
2023-02-07T05:49:55.513Z,2.07
2023-02-07T05:52:24.482Z,1.83
2023-02-07T05:54:52.301Z,2.47
2023-02-07T05:57:20.178Z,2.27
2023-02-07T05:59:47.834Z,2.03
2023-02-07T06:02:15.634Z,2.03
2023-02-07T06:04:43.283Z,2.00
2023-02-07T06:07:10.927Z,1.77
2023-02-07T06:09:39.969Z,2.00
2023-02-07T06:12:08.047Z,2.10
2023-02-07T06:14:36.652Z,1.90
2023-02-07T06:17:04.437Z,1.70
2023-02-07T06:19:32.122Z,2.10
2023-02-07T06:22:00.036Z,2.10
2023-02-07T06:24:27.770Z,1.80
2023-02-07T06:26:56.756Z,2.03
2023-02-07T06:29:24.442Z,1.87
2023-02-07T06:31:52.207Z,2.10
2023-02-07T06:34:20.109Z,1.83
2023-02-07T06:36:47.744Z,2.57
2023-02-07T06:39:15.421Z,2.13
2023-02-07T06:41:43.060Z,1.93
2023-02-07T06:44:12.281Z,2.00
2023-02-07T06:46:39.948Z,2.53
2023-02-07T06:49:07.672Z,6.13
2023-02-07T06:51:35.403Z,2.60
2023-02-07T06:54:08.091Z,2.67
2023-02-07T06:56:35.732Z,2.63
2023-02-07T06:59:03.364Z,2.87
2023-02-07T07:01:32.680Z,2.50
2023-02-07T07:04:00.358Z,2.20
2023-02-07T07:06:28.012Z,2.40
2023-02-07T07:08:56.041Z,2.37
2023-02-07T07:11:23.710Z,2.57
2023-02-07T07:13:51.420Z,1.97
2023-02-07T07:16:19.137Z,2.33
2023-02-07T07:18:48.142Z,2.13
2023-02-07T07:21:15.778Z,1.70
2023-02-07T07:23:43.472Z,1.90
2023-02-07T07:26:11.156Z,2.13
2023-02-07T07:28:38.810Z,2.20
2023-02-07T07:31:08.027Z,2.37
2023-02-07T07:33:36.556Z,1.77
2023-02-07T07:36:08.745Z,1.77
2023-02-07T07:41:09.766Z,1.97
2023-02-07T07:43:37.520Z,2.27
2023-02-07T07:46:07.621Z,2.03
2023-02-07T07:48:35.578Z,2.00
2023-02-07T07:51:03.382Z,2.33
2023-02-07T07:53:32.423Z,2.20
2023-02-07T07:56:00.085Z,2.73
2023-02-07T07:58:28.848Z,2.30
2023-02-07T08:00:56.736Z,2.37
2023-02-07T08:03:24.895Z,2.53
2023-02-07T08:05:52.803Z,2.63
2023-02-07T08:08:20.761Z,2.20
2023-02-07T08:10:50.341Z,2.30
2023-02-07T08:13:18.525Z,2.00
2023-02-07T08:15:46.291Z,3.23
2023-02-07T08:18:13.982Z,3.30
2023-02-07T08:20:41.724Z,2.27
2023-02-07T08:23:09.424Z,2.53
2023-02-07T08:25:37.097Z,2.30
2023-02-07T08:28:06.233Z,2.23
2023-02-07T08:30:34.442Z,3.27
2023-02-07T08:33:02.133Z,2.80
2023-02-07T08:35:29.818Z,2.30
2023-02-07T08:37:58.316Z,2.83
2023-02-07T08:40:26.192Z,2.57
2023-02-07T08:42:53.921Z,2.27
2023-02-07T08:45:22.928Z,2.43
2023-02-07T08:47:50.650Z,2.20
2023-02-07T08:50:18.925Z,2.53
2023-02-07T08:52:46.640Z,2.57
2023-02-07T08:55:14.320Z,2.33
2023-02-07T08:57:41.966Z,3.43
2023-02-07T09:00:10.904Z,2.60
2023-02-07T09:02:40.082Z,2.60
2023-02-07T09:05:08.776Z,2.23
2023-02-07T09:07:36.514Z,3.07
2023-02-07T09:10:06.697Z,2.70
2023-02-07T09:12:35.125Z,2.83
2023-02-07T09:15:02.783Z,2.60
2023-02-07T09:17:30.531Z,2.53
2023-02-07T09:19:59.571Z,2.40
2023-02-07T09:22:27.344Z,3.10
2023-02-07T09:24:55.019Z,2.50
2023-02-07T09:27:22.684Z,2.20
2023-02-07T09:29:50.347Z,2.93
2023-02-07T09:32:18.022Z,3.97
2023-02-07T09:34:45.689Z,2.63
2023-02-07T09:37:14.713Z,2.57
2023-02-07T09:39:44.492Z,2.43
2023-02-07T09:42:24.649Z,2.50
2023-02-07T09:44:58.759Z,2.80
2023-02-07T09:47:27.590Z,3.27
2023-02-07T09:49:58.579Z,2.50
2023-02-07T09:52:32.017Z,3.00
2023-02-07T09:55:01.377Z,2.33
2023-02-07T09:57:37.742Z,2.60
2023-02-07T10:00:10.143Z,2.53
2023-02-07T10:02:42.975Z,3.00
2023-02-07T10:05:17.796Z,3.67
2023-02-07T10:07:48.669Z,2.87
2023-02-07T10:10:17.557Z,2.50
2023-02-07T10:13:08.483Z,2.10
2023-02-07T10:16:08.563Z,2.33
2023-02-07T10:18:46.157Z,2.20
2023-02-07T10:21:22.760Z,2.30
2023-02-07T10:24:20.944Z,2.37
2023-02-07T10:26:53.693Z,2.27
2023-02-07T10:29:42.690Z,2.17
2023-02-07T10:32:21.922Z,2.67
2023-02-07T10:34:53.634Z,2.60
2023-02-07T10:37:24.930Z,3.17
2023-02-07T10:40:01.489Z,3.10
2023-02-07T10:42:31.391Z,2.43
2023-02-07T10:44:59.224Z,2.80
2023-02-07T10:47:26.974Z,2.33
2023-02-07T10:49:56.631Z,2.30
2023-02-07T10:52:30.097Z,2.60
2023-02-07T10:55:01.016Z,2.17
2023-02-07T10:57:30.675Z,2.93
2023-02-07T11:00:00.521Z,2.30
2023-02-07T11:02:44.762Z,2.20
2023-02-07T11:05:31.756Z,2.40
2023-02-07T11:08:01.001Z,2.60
2023-02-07T11:10:33.935Z,2.10
2023-02-07T11:13:02.975Z,2.47
2023-02-07T11:15:38.119Z,2.23
2023-02-07T11:18:07.149Z,2.47
2023-02-07T11:20:38.604Z,2.43
2023-02-07T11:23:12.844Z,2.73
2023-02-07T11:25:45.425Z,2.50
2023-02-07T11:28:21.724Z,2.73
2023-02-07T11:30:55.875Z,2.37
2023-02-07T11:33:27.659Z,2.53
2023-02-07T11:36:11.675Z,2.63
2023-02-07T11:38:41.013Z,2.40
2023-02-07T11:41:21.770Z,2.13
2023-02-07T11:43:59.743Z,2.47
2023-02-07T11:46:37.713Z,2.17
2023-02-07T11:49:09.195Z,1.80
2023-02-07T11:51:37.754Z,2.13
2023-02-07T11:54:07.991Z,2.40
2023-02-07T11:56:40.809Z,2.80
2023-02-07T11:59:16.398Z,2.23
2023-02-07T12:01:51.411Z,2.10
2023-02-07T12:04:22.582Z,2.17
2023-02-07T12:06:56.052Z,2.37
2023-02-07T12:09:33.237Z,1.80
2023-02-07T12:12:05.421Z,2.27
2023-02-07T12:14:40.178Z,1.87
2023-02-07T12:17:15.722Z,1.87
2023-02-07T12:19:54.482Z,2.10
2023-02-07T12:22:26.226Z,2.00
2023-02-07T12:24:57.827Z,2.13
2023-02-07T12:27:33.118Z,2.87
2023-02-07T12:30:06.310Z,2.00
2023-02-07T12:32:45.348Z,1.83
2023-02-07T12:35:21.080Z,2.20
2023-02-07T12:37:56.033Z,1.93
2023-02-07T12:40:33.770Z,2.80
2023-02-07T12:43:08.641Z,1.83
2023-02-07T12:45:47.874Z,2.20
2023-02-07T12:48:26.298Z,2.00
2023-02-07T12:51:10.214Z,2.27
2023-02-07T12:53:49.209Z,2.30
2023-02-07T12:56:33.500Z,2.43
2023-02-07T12:59:15.127Z,2.07
2023-02-07T13:01:47.698Z,2.03
2023-02-07T13:04:33.460Z,2.30
2023-02-07T13:07:13.224Z,2.30
2023-02-07T13:09:49.276Z,2.30
2023-02-07T13:12:21.425Z,2.10
2023-02-07T13:15:02.909Z,2.10
2023-02-07T13:17:46.371Z,2.13
2023-02-07T13:20:24.136Z,2.10
2023-02-07T13:22:57.531Z,1.83
2023-02-07T13:25:30.399Z,1.77
2023-02-07T13:28:01.881Z,2.30
2023-02-07T13:30:31.812Z,2.10
2023-02-07T13:33:04.078Z,1.87
2023-02-07T13:35:38.270Z,2.07
2023-02-07T13:38:19.485Z,2.30
2023-02-07T13:40:56.653Z,2.10
2023-02-07T13:43:38.248Z,1.80
2023-02-07T13:46:27.268Z,2.00
2023-02-07T13:48:59.215Z,1.80
2023-02-07T13:51:32.194Z,2.07
2023-02-07T13:54:09.901Z,2.07
2023-02-07T13:56:55.917Z,1.87
2023-02-07T13:59:42.794Z,2.10
2023-02-07T14:02:20.144Z,2.37
2023-02-07T14:04:50.974Z,1.70
2023-02-07T14:07:26.215Z,1.93
2023-02-07T14:09:56.802Z,2.37
2023-02-07T14:12:27.737Z,2.20
2023-02-07T14:15:03.567Z,1.97
2023-02-07T14:18:01.294Z,1.97
2023-02-07T14:20:51.181Z,1.73
2023-02-07T14:23:20.825Z,2.03
2023-02-07T14:25:50.372Z,1.90
2023-02-07T14:28:22.080Z,2.20
2023-02-07T14:31:02.032Z,1.73
2023-02-07T14:33:37.434Z,2.07
2023-02-07T14:36:25.058Z,1.90
2023-02-07T14:39:06.884Z,2.07
2023-02-07T14:41:37.490Z,1.97
2023-02-07T14:44:10.281Z,2.23
2023-02-07T14:46:40.957Z,1.90
2023-02-07T14:49:16.618Z,1.90
2023-02-07T14:51:47.988Z,1.97
2023-02-07T14:54:19.878Z,1.73
2023-02-07T14:56:53.934Z,1.73
2023-02-07T14:59:28.654Z,2.07
2023-02-07T15:01:56.501Z,1.80
2023-02-07T15:04:25.474Z,1.83
2023-02-07T15:06:53.127Z,2.07
2023-02-07T15:09:26.217Z,2.13
2023-02-07T15:12:03.529Z,2.20
2023-02-07T15:14:36.749Z,2.27
2023-02-07T15:17:04.879Z,1.97
2023-02-07T15:19:37.691Z,2.10
2023-02-07T15:22:17.207Z,2.10
2023-02-07T15:24:56.300Z,1.77
2023-02-07T15:27:26.058Z,2.03
2023-02-07T15:29:58.425Z,2.07
2023-02-07T15:32:30.084Z,2.17
2023-02-07T15:35:00.398Z,1.90
2023-02-07T15:37:28.112Z,2.20
2023-02-07T15:39:57.665Z,2.00
2023-02-07T15:42:25.477Z,2.47
2023-02-07T15:44:54.959Z,1.90
2023-02-07T15:47:37.451Z,1.70
2023-02-07T15:50:20.975Z,1.70
2023-02-07T15:52:52.547Z,2.13
2023-02-07T15:55:26.726Z,1.73
2023-02-07T15:57:54.590Z,2.10
2023-02-07T16:00:25.195Z,2.23
2023-02-07T16:03:00.449Z,2.27
2023-02-07T16:05:32.022Z,2.33
2023-02-07T16:08:09.015Z,1.93
2023-02-07T16:10:40.270Z,2.10
2023-02-07T16:13:19.487Z,2.20
2023-02-07T16:15:56.356Z,2.27
2023-02-07T16:18:38.484Z,2.33
2023-02-07T16:21:13.394Z,2.10
2023-02-07T16:23:41.345Z,1.83
2023-02-07T16:26:09.074Z,2.20
2023-02-07T16:28:36.773Z,2.40
2023-02-07T16:31:04.650Z,1.87
2023-02-07T16:33:32.278Z,1.73
2023-02-07T16:35:59.914Z,2.30
2023-02-07T16:38:28.940Z,2.53
2023-02-07T16:40:56.638Z,1.73
2023-02-07T16:43:35.203Z,1.63
2023-02-07T16:46:03.541Z,2.13
2023-02-07T16:48:31.516Z,2.27
2023-02-07T16:51:01.129Z,2.07
2023-02-07T16:53:30.112Z,2.10
2023-02-07T16:55:59.318Z,2.20
2023-02-07T16:58:30.266Z,1.70
2023-02-07T17:00:57.990Z,2.33
2023-02-07T17:03:25.657Z,2.17
2023-02-07T17:05:53.331Z,1.80
2023-02-07T17:08:25.166Z,2.30
2023-02-07T17:10:59.096Z,1.90
2023-02-07T17:13:26.947Z,2.10
2023-02-07T17:15:54.826Z,2.30
2023-02-07T17:18:22.635Z,2.10
2023-02-07T17:20:50.378Z,2.37
2023-02-07T17:23:18.401Z,2.13
2023-02-07T17:25:46.047Z,2.30
2023-02-07T17:28:15.905Z,2.20
2023-02-07T17:30:43.946Z,1.93
2023-02-07T17:33:11.988Z,2.90
2023-02-07T17:35:39.797Z,2.40
2023-02-07T17:38:07.541Z,2.20
2023-02-07T17:40:37.629Z,2.07
2023-02-07T17:43:08.163Z,2.50
2023-02-07T17:45:38.545Z,2.10
2023-02-07T17:48:06.805Z,2.30
2023-02-07T17:50:36.765Z,2.20
2023-02-07T17:53:05.205Z,1.90
2023-02-07T17:55:34.215Z,2.20
2023-02-07T17:58:03.258Z,2.33
2023-02-07T18:00:33.605Z,2.20
2023-02-07T18:03:02.583Z,2.00
2023-02-07T18:05:30.564Z,1.70
2023-02-07T18:07:58.340Z,1.90
2023-02-07T18:10:28.399Z,1.87
2023-02-07T18:12:56.369Z,2.43
2023-02-07T18:15:24.577Z,2.07
2023-02-07T18:17:52.991Z,1.80
2023-02-07T18:20:24.161Z,2.20
2023-02-07T18:22:52.697Z,1.90
2023-02-07T18:25:20.378Z,3.00
2023-02-07T18:27:50.926Z,2.00
2023-02-07T18:30:19.845Z,2.20
2023-02-07T18:32:47.699Z,2.30
2023-02-07T18:35:15.340Z,2.40
2023-02-07T18:37:44.969Z,2.10
2023-02-07T18:40:15.651Z,2.23
2023-02-07T18:42:43.615Z,2.27
2023-02-07T18:45:13.598Z,1.93
2023-02-07T18:47:41.307Z,2.67
2023-02-07T18:50:10.141Z,7.10
2023-02-07T18:52:38.073Z,8.97
2023-02-07T18:55:07.803Z,8.17
2023-02-07T18:57:35.418Z,10.10
2023-02-07T19:00:03.948Z,10.20
2023-02-07T19:02:31.590Z,11.17
2023-02-07T19:04:59.248Z,9.97
2023-02-07T19:07:26.964Z,10.00
2023-02-07T19:09:54.602Z,10.13
2023-02-07T19:12:23.584Z,10.67
2023-02-07T19:14:51.392Z,9.43
2023-02-07T19:17:20.050Z,8.77
2023-02-07T19:19:47.776Z,8.73
2023-02-07T19:22:21.576Z,8.50
2023-02-07T19:24:54.377Z,8.90
2023-02-07T19:27:23.641Z,9.60
2023-02-07T19:29:51.776Z,8.97
2023-02-07T19:32:20.137Z,9.50
2023-02-07T19:34:49.793Z,8.93
2023-02-07T19:37:18.382Z,10.30
2023-02-07T19:39:46.755Z,10.80
2023-02-07T19:42:14.627Z,9.27
2023-02-07T19:44:44.524Z,10.03
2023-02-07T19:47:12.793Z,10.23
2023-02-07T19:49:43.754Z,10.23
2023-02-07T19:52:11.720Z,9.97
2023-02-07T19:54:40.583Z,9.67
2023-02-07T19:57:08.221Z,9.93
2023-02-07T19:59:35.982Z,10.67
2023-02-07T20:02:05.022Z,11.13
2023-02-07T20:04:32.677Z,11.27
2023-02-07T20:07:00.912Z,12.10
2023-02-07T20:09:28.546Z,10.63
2023-02-07T20:11:56.287Z,11.40
2023-02-07T20:14:23.918Z,11.93
2023-02-07T20:16:51.630Z,10.50
2023-02-07T20:19:20.598Z,11.67
2023-02-07T20:21:48.235Z,10.87
2023-02-07T20:24:15.868Z,10.37
2023-02-07T20:26:44.505Z,11.23
2023-02-07T20:29:13.699Z,10.23
2023-02-07T20:31:42.471Z,9.97
2023-02-07T20:34:10.717Z,10.87
2023-02-07T20:36:42.099Z,10.27
2023-02-07T20:39:13.100Z,10.07
2023-02-07T20:41:41.935Z,10.43
2023-02-07T20:44:13.569Z,8.97
2023-02-07T20:46:42.196Z,10.20
2023-02-07T20:49:13.366Z,8.23
2023-02-07T20:51:43.834Z,8.73
2023-02-07T20:54:12.749Z,10.63
2023-02-07T20:56:40.520Z,9.57
2023-02-07T20:59:09.599Z,9.93
2023-02-07T21:01:37.349Z,8.33
2023-02-07T21:04:06.853Z,11.27
2023-02-07T21:06:36.022Z,8.33
2023-02-07T21:09:07.394Z,7.17
2023-02-07T21:11:37.642Z,7.43
2023-02-07T21:14:07.506Z,8.47
2023-02-07T21:16:35.881Z,6.67
2023-02-07T21:19:03.582Z,7.17
2023-02-07T21:21:31.294Z,6.67
2023-02-07T21:23:59.057Z,6.33
2023-02-07T21:26:28.368Z,6.73
2023-02-07T21:28:59.030Z,6.87
2023-02-07T21:31:27.366Z,5.73
2023-02-07T21:33:55.143Z,6.20
2023-02-07T21:36:24.649Z,7.03
2023-02-07T21:38:54.268Z,5.63
2023-02-07T21:41:25.263Z,6.40
2023-02-07T21:43:55.430Z,6.20
2023-02-07T21:46:25.600Z,5.50
2023-02-07T21:48:54.796Z,6.80
2023-02-07T21:51:24.804Z,6.27
2023-02-07T21:53:54.338Z,5.73
2023-02-07T21:56:25.065Z,4.67
2023-02-07T21:58:56.655Z,5.83
2023-02-07T22:01:25.087Z,5.30
2023-02-07T22:03:54.849Z,4.87
2023-02-07T22:06:23.665Z,6.13
2023-02-07T22:08:53.327Z,5.93
2023-02-07T22:11:22.901Z,6.30
2023-02-07T22:13:52.403Z,5.70
2023-02-07T22:16:23.421Z,5.47
2023-02-07T22:18:53.079Z,4.70
2023-02-07T22:21:23.319Z,4.77
2023-02-07T22:23:51.679Z,5.90
2023-02-07T22:26:20.090Z,5.67
2023-02-07T22:28:48.623Z,5.13
2023-02-07T22:31:19.451Z,5.63
2023-02-07T22:33:49.687Z,4.67
2023-02-07T22:36:19.523Z,4.60
2023-02-07T22:38:47.722Z,5.27
2023-02-07T22:41:15.763Z,5.20
2023-02-07T22:43:43.905Z,5.83
2023-02-07T22:46:14.686Z,4.93
2023-02-07T22:48:43.071Z,4.50
2023-02-07T22:51:13.650Z,5.00
2023-02-07T22:53:41.820Z,4.70
2023-02-07T22:56:09.552Z,4.57
2023-02-07T22:58:37.973Z,5.07
2023-02-07T23:01:06.682Z,3.97
2023-02-07T23:03:34.849Z,4.47
2023-02-07T23:06:04.621Z,4.30
2023-02-07T23:08:33.640Z,4.47
2023-02-07T23:11:01.299Z,4.67
2023-02-07T23:13:28.938Z,5.50
2023-02-07T23:15:56.586Z,4.30
2023-02-07T23:18:25.335Z,5.30
2023-02-07T23:20:53.577Z,4.40
2023-02-07T23:23:22.559Z,4.27
2023-02-07T23:25:51.539Z,4.63
2023-02-07T23:28:19.187Z,4.23
2023-02-07T23:30:46.921Z,4.63
2023-02-07T23:33:14.592Z,4.57
2023-02-07T23:35:42.226Z,4.10
2023-02-07T23:38:09.943Z,4.10
2023-02-07T23:40:37.672Z,4.13
2023-02-07T23:43:06.854Z,4.63
2023-02-07T23:45:34.479Z,4.07
2023-02-07T23:48:03.905Z,3.67
2023-02-07T23:50:31.568Z,4.43
2023-02-07T23:52:59.188Z,4.27
2023-02-07T23:55:26.887Z,4.37
2023-02-07T23:57:55.160Z,3.80
